createdAt,value
2019-04-05T00:01:38.463Z,2.80
2019-04-05T00:04:07.573Z,2.80
2019-04-05T00:06:36.834Z,2.70
2019-04-05T00:09:07.023Z,2.70
2019-04-05T00:11:36.179Z,2.60
2019-04-05T00:14:05.340Z,2.60
2019-04-05T00:16:34.504Z,2.50
2019-04-05T00:19:03.634Z,2.50
2019-04-05T00:21:32.866Z,2.40
2019-04-05T00:24:02.005Z,2.50
2019-04-05T00:26:31.173Z,2.50
2019-04-05T00:29:00.356Z,2.40
2019-04-05T00:31:29.464Z,2.50
2019-04-05T00:33:58.648Z,2.50
2019-04-05T00:36:27.779Z,2.50
2019-04-05T00:38:57.036Z,2.50
2019-04-05T00:41:26.174Z,2.50
2019-04-05T00:43:55.279Z,2.60
2019-04-05T00:46:24.436Z,2.60
2019-04-05T00:48:53.551Z,2.70
2019-04-05T00:51:22.945Z,2.70
2019-04-05T00:53:52.114Z,2.70
2019-04-05T00:56:21.188Z,2.70
2019-04-05T00:58:50.348Z,2.80
2019-04-05T01:01:19.569Z,2.80
2019-04-05T01:03:48.671Z,2.70
2019-04-05T01:06:17.831Z,2.70
2019-04-05T01:08:46.962Z,2.70
2019-04-05T01:11:16.100Z,2.70
2019-04-05T01:13:45.231Z,2.70
2019-04-05T01:16:14.342Z,2.70
2019-04-05T01:18:43.471Z,2.80
2019-04-05T01:21:14.758Z,2.80
2019-04-05T01:23:45.050Z,2.80
2019-04-05T01:26:15.539Z,2.90
2019-04-05T01:28:44.768Z,2.90
2019-04-05T01:31:13.871Z,2.90
2019-04-05T01:33:43.000Z,2.90
2019-04-05T01:36:12.160Z,2.90
2019-04-05T01:38:41.335Z,3.00
2019-04-05T01:41:10.528Z,3.00
2019-04-05T01:43:39.638Z,3.00
2019-04-05T01:46:08.860Z,3.00
2019-04-05T01:48:38.021Z,3.00
2019-04-05T01:51:07.238Z,3.00
2019-04-05T01:53:36.470Z,3.00
2019-04-05T01:56:05.787Z,3.00
2019-04-05T01:58:34.883Z,2.90
2019-04-05T02:01:04.099Z,2.90
2019-04-05T02:03:33.222Z,2.90
2019-04-05T02:06:02.370Z,2.90
2019-04-05T02:08:31.590Z,2.90
2019-04-05T02:11:00.724Z,2.90
2019-04-05T02:13:29.850Z,2.90
2019-04-05T02:16:06.311Z,2.80
2019-04-05T02:18:29.829Z,2.70
2019-04-05T02:20:58.947Z,2.70
2019-04-05T02:23:28.073Z,2.60
2019-04-05T02:25:57.277Z,2.60
2019-04-05T02:28:26.404Z,2.60
2019-04-05T02:30:55.547Z,2.60
2019-04-05T02:33:24.756Z,2.50
2019-04-05T02:35:53.903Z,2.50
2019-04-05T02:38:23.058Z,2.50
2019-04-05T02:40:53.984Z,2.50
2019-04-05T02:43:25.531Z,2.50
2019-04-05T02:45:56.583Z,2.50
2019-04-05T02:48:28.936Z,2.60
2019-04-05T02:51:01.109Z,2.60
2019-04-05T02:53:31.522Z,2.50
2019-04-05T02:56:03.349Z,2.60
2019-04-05T02:58:34.145Z,2.60
2019-04-05T03:01:03.409Z,2.50
2019-04-05T03:03:32.590Z,2.50
2019-04-05T03:06:02.431Z,2.50
2019-04-05T03:08:31.779Z,2.60
2019-04-05T03:11:08.926Z,2.60
2019-04-05T03:13:42.007Z,2.60
2019-04-05T03:16:17.350Z,2.70
2019-04-05T03:18:55.179Z,2.70
2019-04-05T03:21:27.694Z,2.80
2019-04-05T03:24:00.459Z,2.80
2019-04-05T03:26:32.842Z,2.80
2019-04-05T03:29:05.223Z,2.90
2019-04-05T03:31:35.560Z,2.90
2019-04-05T03:34:05.600Z,2.80
2019-04-05T03:36:35.451Z,2.80
2019-04-05T03:39:05.959Z,2.80
2019-04-05T03:41:35.388Z,2.80
2019-04-05T03:44:04.995Z,2.80
2019-04-05T03:46:34.556Z,2.70
2019-04-05T03:49:05.301Z,2.70
2019-04-05T03:51:35.375Z,2.70
2019-04-05T03:54:05.589Z,2.70
2019-04-05T03:56:37.816Z,2.80
2019-04-05T03:59:05.911Z,2.80
2019-04-05T04:01:35.041Z,2.70
2019-04-05T04:04:04.500Z,2.70
2019-04-05T04:06:33.745Z,2.80
2019-04-05T04:09:04.512Z,2.80
2019-04-05T04:11:33.982Z,2.80
2019-04-05T04:14:03.154Z,2.70
2019-04-05T04:16:32.586Z,2.80
2019-04-05T04:19:01.932Z,2.80
2019-04-05T04:21:38.786Z,2.80
2019-04-05T04:24:09.797Z,2.90
2019-04-05T04:26:39.844Z,2.90
2019-04-05T04:29:09.000Z,3.00
2019-04-05T04:31:38.810Z,3.00
2019-04-05T04:34:08.441Z,3.00
2019-04-05T04:36:37.692Z,3.10
2019-04-05T04:39:07.021Z,3.10
2019-04-05T04:41:36.277Z,3.10
2019-04-05T04:44:05.595Z,3.10
2019-04-05T04:46:34.751Z,3.10
2019-04-05T04:49:04.225Z,3.10
2019-04-05T04:51:34.144Z,3.10
2019-04-05T04:54:03.908Z,3.10
2019-04-05T04:56:33.164Z,3.10
2019-04-05T04:59:02.280Z,3.10
2019-04-05T05:01:31.436Z,3.10
2019-04-05T05:04:00.994Z,3.10
2019-04-05T05:06:30.274Z,3.00
2019-04-05T05:09:00.739Z,3.00
2019-04-05T05:11:30.352Z,3.00
2019-04-05T05:13:59.496Z,3.00
2019-04-05T05:16:28.644Z,2.90
2019-04-05T05:18:57.826Z,3.00
2019-04-05T05:21:27.045Z,3.00
2019-04-05T05:23:56.374Z,3.10
2019-04-05T05:26:25.696Z,3.10
2019-04-05T05:28:54.811Z,3.10
2019-04-05T05:31:25.069Z,3.10
2019-04-05T05:33:54.398Z,3.20
2019-04-05T05:36:23.545Z,3.10
2019-04-05T05:38:52.710Z,3.20
2019-04-05T05:41:21.876Z,3.20
2019-04-05T05:43:51.043Z,3.20
2019-04-05T05:46:20.194Z,3.30
2019-04-05T05:48:49.739Z,3.20
2019-04-05T05:51:18.994Z,3.20
2019-04-05T05:53:48.130Z,3.20
2019-04-05T05:56:17.265Z,3.20
2019-04-05T05:58:46.432Z,3.20
2019-04-05T06:01:15.629Z,3.20
2019-04-05T06:03:44.772Z,3.30
2019-04-05T06:06:13.978Z,3.40
2019-04-05T06:08:43.119Z,3.40
2019-04-05T06:11:12.246Z,3.40
2019-04-05T06:13:41.366Z,3.50
2019-04-05T06:16:10.508Z,3.50
2019-04-05T06:18:39.677Z,3.60
2019-04-05T06:21:08.845Z,3.60
2019-04-05T06:23:37.996Z,3.60
2019-04-05T06:26:07.151Z,3.70
2019-04-05T06:28:36.389Z,3.70
2019-04-05T06:31:05.619Z,3.80
2019-04-05T06:33:35.986Z,3.80
2019-04-05T06:36:05.223Z,3.90
2019-04-05T06:38:34.379Z,3.90
2019-04-05T06:41:03.542Z,3.90
2019-04-05T06:43:32.679Z,4.00
2019-04-05T06:46:01.975Z,4.00
2019-04-05T06:48:31.424Z,4.00
2019-04-05T06:51:00.571Z,4.00
2019-04-05T06:53:29.727Z,4.00
2019-04-05T06:55:59.947Z,4.00
2019-04-05T06:58:29.628Z,4.00
2019-04-05T07:00:59.268Z,4.00
2019-04-05T07:03:28.400Z,4.10
2019-04-05T07:05:57.559Z,4.10
2019-04-05T07:08:26.721Z,4.20
2019-04-05T07:10:55.784Z,4.30
2019-04-05T07:13:27.277Z,4.30
2019-04-05T07:15:55.804Z,4.30
2019-04-05T07:18:34.021Z,4.40
2019-04-05T07:20:57.934Z,4.50
2019-04-05T07:23:26.707Z,4.60
2019-04-05T07:25:55.877Z,4.60
2019-04-05T07:28:25.375Z,4.60
2019-04-05T07:30:54.777Z,4.70
2019-04-05T07:33:24.063Z,4.80
2019-04-05T07:35:53.196Z,4.80
2019-04-05T07:38:22.703Z,4.90
2019-04-05T07:40:51.915Z,5.10
2019-04-05T07:43:21.053Z,5.20
2019-04-05T07:45:50.262Z,5.30
2019-04-05T07:48:19.433Z,5.50
2019-04-05T07:50:48.581Z,5.50
2019-04-05T07:53:17.707Z,5.70
2019-04-05T07:55:46.881Z,5.80
2019-04-05T07:58:16.036Z,5.80
2019-04-05T08:00:55.690Z,5.90
2019-04-05T08:03:25.451Z,6.00
2019-04-05T08:05:54.929Z,6.00
2019-04-05T08:08:49.240Z,6.10
2019-04-05T08:11:18.805Z,6.20
2019-04-05T08:13:49.923Z,6.20
2019-04-05T08:16:19.039Z,6.30
2019-04-05T08:18:57.782Z,6.40
2019-04-05T08:21:19.144Z,6.60
2019-04-05T08:23:48.315Z,6.70
2019-04-05T08:26:17.459Z,6.70
2019-04-05T08:28:46.618Z,6.90
2019-04-05T08:31:16.623Z,7.00
2019-04-05T08:33:45.759Z,7.30
2019-04-05T08:36:14.905Z,7.50
2019-04-05T08:38:44.087Z,7.70
2019-04-05T08:41:13.275Z,7.90
2019-04-05T08:43:42.444Z,8.10
2019-04-05T08:46:11.563Z,8.30
2019-04-05T08:48:40.712Z,8.40
2019-04-05T08:51:09.880Z,8.50
2019-04-05T08:53:39.098Z,8.60
2019-04-05T08:56:08.281Z,8.80
2019-04-05T08:58:37.436Z,9.00
2019-04-05T09:01:06.578Z,9.20
2019-04-05T09:03:35.716Z,9.40
2019-04-05T09:06:04.941Z,9.60
2019-04-05T09:08:34.097Z,9.70
2019-04-05T09:11:03.327Z,9.80
2019-04-05T09:13:32.490Z,9.90
2019-04-05T09:16:01.657Z,10.00
2019-04-05T09:18:30.780Z,10.10
2019-04-05T09:21:00.021Z,10.30
2019-04-05T09:23:29.170Z,10.40
2019-04-05T09:25:58.317Z,10.40
2019-04-05T09:28:27.462Z,10.50
2019-04-05T09:30:56.582Z,10.60
2019-04-05T09:33:25.740Z,10.60
2019-04-05T09:35:54.857Z,10.50
2019-04-05T09:38:24.052Z,10.40
2019-04-05T09:40:53.215Z,10.30
2019-04-05T09:43:22.438Z,10.40
2019-04-05T09:45:51.755Z,10.40
2019-04-05T09:48:21.001Z,10.50
2019-04-05T09:50:50.295Z,10.70
2019-04-05T09:53:19.480Z,10.90
2019-04-05T09:55:48.756Z,10.80
2019-04-05T09:58:17.941Z,10.70
2019-04-05T10:00:47.110Z,10.70
2019-04-05T10:03:16.354Z,10.60
2019-04-05T10:05:45.547Z,10.50
2019-04-05T10:08:14.719Z,10.50
2019-04-05T10:10:43.964Z,10.60
2019-04-05T10:13:13.095Z,10.70
2019-04-05T10:15:42.247Z,10.80
2019-04-05T10:18:11.465Z,10.80
2019-04-05T10:20:40.701Z,10.90
2019-04-05T10:23:09.859Z,10.90
2019-04-05T10:25:39.044Z,10.90
2019-04-05T10:28:08.210Z,11.00
2019-04-05T10:30:37.360Z,11.10
2019-04-05T10:33:06.512Z,11.20
2019-04-05T10:35:35.666Z,11.40
2019-04-05T10:38:05.896Z,11.50
2019-04-05T10:40:35.074Z,11.50
2019-04-05T10:43:04.545Z,11.50
2019-04-05T10:45:33.697Z,11.40
2019-04-05T10:48:02.850Z,11.40
2019-04-05T10:50:31.966Z,11.30
2019-04-05T10:53:01.114Z,11.20
2019-04-05T10:55:30.282Z,11.20
2019-04-05T10:57:59.439Z,11.30
2019-04-05T11:00:28.799Z,11.30
2019-04-05T11:02:57.971Z,11.30
2019-04-05T11:05:27.234Z,11.40
2019-04-05T11:07:56.736Z,11.50
2019-04-05T11:10:25.940Z,11.60
2019-04-05T11:12:55.079Z,11.70
2019-04-05T11:15:24.258Z,11.70
2019-04-05T11:17:53.425Z,11.70
2019-04-05T11:20:22.727Z,11.80
2019-04-05T11:22:52.072Z,11.80
2019-04-05T11:25:21.310Z,11.80
2019-04-05T11:27:50.562Z,11.80
2019-04-05T11:30:41.206Z,11.70
2019-04-05T11:33:10.466Z,11.70
2019-04-05T11:35:39.610Z,11.70
2019-04-05T11:38:09.092Z,11.70
2019-04-05T11:40:38.912Z,11.60
2019-04-05T11:43:08.070Z,11.60
2019-04-05T11:45:37.738Z,11.70
2019-04-05T11:48:07.300Z,11.70
2019-04-05T11:50:36.447Z,11.60
2019-04-05T11:53:06.475Z,11.50
2019-04-05T11:55:35.668Z,11.40
2019-04-05T11:58:04.904Z,11.40
2019-04-05T12:01:05.439Z,11.20
2019-04-05T12:03:34.676Z,11.20
2019-04-05T12:06:03.818Z,11.20
2019-04-05T12:08:33.111Z,11.20
2019-04-05T12:11:02.609Z,11.10
2019-04-05T12:13:31.767Z,11.10
2019-04-05T12:16:00.906Z,11.10
2019-04-05T12:18:30.067Z,11.00
2019-04-05T12:21:00.608Z,10.90
2019-04-05T12:23:32.421Z,10.90
2019-04-05T12:26:03.934Z,10.80
2019-04-05T12:28:31.928Z,10.80
2019-04-05T12:31:01.111Z,10.70
2019-04-05T12:33:30.305Z,10.70
2019-04-05T12:35:59.505Z,10.70
2019-04-05T12:38:33.091Z,10.70
2019-04-05T12:41:04.360Z,10.60
2019-04-05T12:43:34.231Z,10.70
2019-04-05T12:46:03.963Z,10.70
2019-04-05T12:48:33.107Z,10.70
2019-04-05T12:51:05.238Z,10.80
2019-04-05T12:53:33.156Z,10.80
2019-04-05T12:56:02.351Z,10.80
2019-04-05T12:58:32.872Z,10.90
2019-04-05T13:01:02.259Z,10.90
2019-04-05T13:03:31.460Z,11.00
2019-04-05T13:06:00.641Z,11.00
2019-04-05T13:08:29.789Z,11.00
2019-04-05T13:10:59.008Z,11.00
2019-04-05T13:13:28.121Z,11.00
2019-04-05T13:15:59.344Z,11.00
2019-04-05T13:18:30.490Z,11.00
2019-04-05T13:21:00.275Z,11.00
2019-04-05T13:23:30.296Z,11.00
2019-04-05T13:25:59.464Z,11.00
2019-04-05T13:28:28.653Z,10.90
2019-04-05T13:30:57.865Z,10.80
2019-04-05T13:33:29.008Z,10.70
2019-04-05T13:35:57.852Z,10.60
2019-04-05T13:38:27.035Z,10.60
2019-04-05T13:40:56.915Z,10.50
2019-04-05T13:43:26.508Z,10.50
2019-04-05T13:45:55.708Z,10.50
2019-04-05T13:48:24.850Z,10.40
2019-04-05T13:50:54.014Z,10.40
2019-04-05T13:53:23.154Z,10.30
2019-04-05T13:55:52.319Z,10.30
2019-04-05T13:58:21.516Z,10.20
2019-04-05T14:00:50.712Z,10.20
2019-04-05T14:03:20.861Z,10.20
2019-04-05T14:05:52.268Z,10.20
2019-04-05T14:08:21.079Z,10.10
2019-04-05T14:10:50.270Z,10.10
2019-04-05T14:13:19.413Z,10.00
2019-04-05T14:15:48.715Z,10.00
2019-04-05T14:18:20.580Z,9.90
2019-04-05T14:20:50.103Z,9.90
2019-04-05T14:23:23.268Z,9.90
2019-04-05T14:25:50.683Z,9.90
2019-04-05T14:28:19.852Z,9.80
2019-04-05T14:30:49.106Z,9.80
2019-04-05T14:33:18.233Z,9.80
2019-04-05T14:35:47.352Z,9.80
2019-04-05T14:38:16.493Z,9.80
2019-04-05T14:40:45.896Z,9.70
2019-04-05T14:43:15.725Z,9.70
2019-04-05T14:45:45.162Z,9.70
2019-04-05T14:48:14.317Z,9.70
2019-04-05T14:50:43.495Z,9.60
2019-04-05T14:53:12.653Z,9.60
2019-04-05T14:55:41.779Z,9.60
2019-04-05T14:58:10.998Z,9.60
2019-04-05T15:00:40.114Z,9.50
2019-04-05T15:03:09.356Z,9.50
2019-04-05T15:05:38.565Z,9.40
2019-04-05T15:08:07.710Z,9.40
2019-04-05T15:10:36.844Z,9.30
2019-04-05T15:13:06.000Z,9.30
2019-04-05T15:15:35.164Z,9.30
2019-04-05T15:18:04.257Z,9.20
2019-04-05T15:20:34.783Z,9.20
2019-04-05T15:23:04.314Z,9.20
2019-04-05T15:25:33.454Z,9.10
2019-04-05T15:28:02.578Z,9.10
2019-04-05T15:30:31.782Z,9.00
2019-04-05T15:33:03.506Z,9.00
2019-04-05T15:35:32.638Z,9.10
2019-04-05T15:38:02.308Z,9.00
2019-04-05T15:40:31.667Z,9.00
2019-04-05T15:43:01.213Z,9.00
2019-04-05T15:45:30.346Z,9.00
2019-04-05T15:47:59.533Z,9.00
2019-04-05T15:50:28.601Z,9.00
2019-04-05T15:52:59.737Z,8.90
2019-04-05T15:55:28.565Z,8.90
2019-04-05T15:57:57.688Z,8.90
2019-04-05T16:00:51.836Z,8.90
2019-04-05T16:03:20.951Z,8.90
2019-04-05T16:05:50.169Z,8.90
2019-04-05T16:08:19.449Z,8.90
2019-04-05T16:10:48.854Z,8.90
2019-04-05T16:13:18.019Z,8.90
2019-04-05T16:15:47.165Z,8.90
2019-04-05T16:18:16.322Z,8.90
2019-04-05T16:20:45.479Z,8.90
2019-04-05T16:23:14.648Z,8.90
2019-04-05T16:25:43.819Z,8.90
2019-04-05T16:28:12.977Z,8.90
2019-04-05T16:30:42.143Z,8.80
2019-04-05T16:33:11.357Z,8.80
2019-04-05T16:35:40.546Z,8.80
2019-04-05T16:38:09.758Z,8.80
2019-04-05T16:40:39.335Z,8.70
2019-04-05T16:43:08.505Z,8.70
2019-04-05T16:45:38.763Z,8.70
2019-04-05T16:48:08.254Z,8.60
2019-04-05T16:50:37.422Z,8.60
2019-04-05T16:53:06.644Z,8.50
2019-04-05T16:55:35.895Z,8.50
2019-04-05T16:58:05.081Z,8.40
2019-04-05T17:00:34.277Z,8.40
2019-04-05T17:03:03.662Z,8.40
2019-04-05T17:05:32.820Z,8.30
2019-04-05T17:08:01.962Z,8.30
2019-04-05T17:10:31.233Z,8.30
2019-04-05T17:13:00.379Z,8.20
2019-04-05T17:15:29.691Z,8.20
2019-04-05T17:17:58.843Z,8.20
2019-04-05T17:20:28.005Z,8.20
2019-04-05T17:22:58.664Z,8.20
2019-04-05T17:25:28.123Z,8.20
2019-04-05T17:27:57.302Z,8.10
2019-04-05T17:30:26.473Z,8.10
2019-04-05T17:32:55.628Z,8.10
2019-04-05T17:35:24.809Z,8.10
2019-04-05T17:37:53.962Z,8.10
2019-04-05T17:40:23.096Z,8.10
2019-04-05T17:42:52.243Z,8.10
2019-04-05T17:45:21.395Z,8.00
2019-04-05T17:47:50.523Z,8.00
2019-04-05T17:50:31.039Z,8.00
2019-04-05T17:53:11.178Z,8.00
2019-04-05T17:55:31.102Z,8.00
2019-04-05T17:58:02.496Z,8.00
2019-04-05T18:00:31.803Z,8.00
2019-04-05T18:03:01.015Z,8.00
2019-04-05T18:05:30.188Z,8.00
2019-04-05T18:07:59.344Z,8.00
2019-04-05T18:10:28.479Z,7.90
2019-04-05T18:12:57.657Z,7.90
2019-04-05T18:15:26.893Z,7.90
2019-04-05T18:17:56.249Z,7.90
2019-04-05T18:20:25.450Z,7.90
2019-04-05T18:22:54.600Z,7.90
2019-04-05T18:25:23.789Z,7.80
2019-04-05T18:27:53.002Z,7.80
2019-04-05T18:30:22.169Z,7.80
2019-04-05T18:32:51.360Z,7.80
2019-04-05T18:35:20.592Z,7.80
2019-04-05T18:37:49.773Z,7.90
2019-04-05T18:40:18.934Z,7.80
2019-04-05T18:42:48.104Z,7.90
2019-04-05T18:45:17.584Z,7.90
2019-04-05T18:47:46.880Z,7.90
2019-04-05T18:50:16.147Z,7.90
2019-04-05T18:52:45.400Z,7.90
2019-04-05T18:55:15.437Z,7.90
2019-04-05T18:57:44.599Z,7.90
2019-04-05T19:00:14.094Z,7.90
2019-04-05T19:02:43.303Z,7.90
2019-04-05T19:05:13.986Z,7.90
2019-04-05T19:07:43.122Z,7.90
2019-04-05T19:10:12.410Z,7.80
2019-04-05T19:12:41.695Z,7.90
2019-04-05T19:15:11.326Z,7.90
2019-04-05T19:17:40.498Z,7.90
2019-04-05T19:20:09.652Z,7.80
2019-04-05T19:22:38.861Z,7.80
2019-04-05T19:25:08.021Z,7.80
2019-04-05T19:27:37.183Z,7.80
2019-04-05T19:50:15.049Z,7.70
2019-04-05T19:52:44.214Z,7.70
2019-04-05T19:55:13.524Z,7.70
2019-04-05T19:57:42.739Z,7.70
2019-04-05T20:00:11.972Z,7.70
2019-04-05T20:02:41.127Z,7.70
2019-04-05T20:05:10.333Z,7.70
2019-04-05T20:07:39.532Z,7.70
2019-04-05T20:10:08.829Z,7.70
2019-04-05T20:12:37.997Z,7.70
2019-04-05T20:15:07.490Z,7.70
2019-04-05T20:17:36.864Z,7.70
2019-04-05T20:20:06.888Z,7.70
2019-04-05T20:22:36.058Z,7.60
2019-04-05T20:25:05.982Z,7.60
2019-04-05T20:27:35.203Z,7.60
2019-04-05T20:30:05.771Z,7.60
2019-04-05T20:32:34.979Z,7.60
2019-04-05T20:35:04.609Z,7.60
2019-04-05T20:37:33.775Z,7.60
2019-04-05T20:40:03.009Z,7.60
2019-04-05T20:42:32.190Z,7.60
2019-04-05T20:45:01.372Z,7.60
2019-04-05T20:47:30.532Z,7.50
2019-04-05T20:49:59.808Z,7.50
2019-04-05T20:52:29.022Z,7.50
2019-04-05T20:54:58.204Z,7.50
2019-04-05T20:57:27.475Z,7.50
2019-04-05T20:59:56.664Z,7.50
2019-04-05T21:02:25.828Z,7.50
2019-04-05T21:04:55.014Z,7.50
2019-04-05T21:07:24.179Z,7.50
2019-04-05T21:09:53.379Z,7.50
2019-04-05T21:12:22.565Z,7.50
2019-04-05T21:14:51.703Z,7.50
2019-04-05T21:17:20.842Z,7.50
2019-04-05T21:19:50.008Z,7.40
2019-04-05T21:22:19.181Z,7.40
2019-04-05T21:24:48.778Z,7.40
2019-04-05T21:27:18.041Z,7.40
2019-04-05T21:29:47.168Z,7.40
2019-04-05T21:32:16.344Z,7.40
2019-04-05T21:34:45.523Z,7.40
2019-04-05T21:37:14.730Z,7.40
2019-04-05T21:39:43.860Z,7.40
2019-04-05T21:42:13.004Z,7.40
2019-04-05T21:44:42.146Z,7.30
2019-04-05T21:47:11.694Z,7.30
2019-04-05T21:49:40.867Z,7.30
2019-04-05T21:52:10.095Z,7.30
2019-04-05T21:54:47.515Z,7.30
2019-04-05T21:57:10.171Z,7.30
2019-04-05T21:59:39.359Z,7.20
2019-04-05T22:02:08.515Z,7.30
2019-04-05T22:04:37.657Z,7.20
2019-04-05T22:07:06.821Z,7.20
2019-04-05T22:09:35.971Z,7.20
2019-04-05T22:12:05.534Z,7.20
2019-04-05T22:14:34.679Z,7.20
2019-04-05T22:17:03.815Z,7.30
2019-04-05T22:19:32.996Z,7.20
2019-04-05T22:22:02.154Z,7.20
2019-04-05T22:24:31.323Z,7.20
2019-04-05T22:27:00.536Z,7.20
2019-04-05T22:29:29.798Z,7.20
2019-04-05T22:31:58.962Z,7.20
2019-04-05T22:34:28.123Z,7.20
2019-04-05T22:36:57.255Z,7.20
2019-04-05T22:39:26.524Z,7.20
2019-04-05T22:41:55.674Z,7.20
2019-04-05T22:44:24.944Z,7.20
2019-04-05T22:46:54.193Z,7.20
2019-04-05T22:49:23.330Z,7.10
2019-04-05T22:51:52.517Z,7.10
2019-04-05T22:54:21.662Z,7.10
2019-04-05T22:56:50.876Z,7.10
2019-04-05T22:59:20.030Z,7.10
2019-04-05T23:01:49.228Z,7.10
2019-04-05T23:04:18.410Z,7.00
2019-04-05T23:06:47.552Z,7.00
2019-04-05T23:09:16.731Z,7.00
2019-04-05T23:11:45.874Z,6.90
2019-04-05T23:14:15.005Z,6.90
2019-04-05T23:16:44.177Z,6.90
2019-04-05T23:19:13.305Z,6.80
2019-04-05T23:21:42.459Z,6.80
2019-04-05T23:24:11.597Z,6.80
2019-04-05T23:26:40.751Z,6.70
2019-04-05T23:29:09.973Z,6.70
2019-04-05T23:31:39.195Z,6.70
2019-04-05T23:34:08.392Z,6.60
2019-04-05T23:36:37.630Z,6.60
2019-04-05T23:39:07.319Z,6.50
2019-04-05T23:41:36.466Z,6.50
2019-04-05T23:44:05.637Z,6.40
2019-04-05T23:46:34.833Z,6.40
2019-04-05T23:49:04.014Z,6.30
2019-04-05T23:51:33.151Z,6.20
2019-04-05T23:54:02.324Z,6.20
2019-04-05T23:56:31.485Z,6.10
2019-04-05T23:59:00.642Z,6.00
